sensor_id;sensor_type;location;lat;lon;timestamp;noise_LAeq;noise_LA_min;noise_LA_max;noise_LA01;noise_LA95
78273;Laerm;67530;52.282;5.972;2023-03-11T00:00:10;58.2;55.2;59.5;;
78273;Laerm;67530;52.282;5.972;2023-03-11T00:00:30;58.3;55.4;59.5;;
78273;Laerm;67530;52.282;5.972;2023-03-11T00:00:49;58.1;55.8;59.6;;
78273;Laerm;67530;52.282;5.972;2023-03-11T00:01:09;58;55.3;59.3;;
78273;Laerm;67530;52.282;5.972;2023-03-11T00:01:29;58;55.1;59.5;;
78273;Laerm;67530;52.282;5.972;2023-03-11T00:01:49;58.1;54.9;59.3;;
78273;Laerm;67530;52.282;5.972;2023-03-11T00:02:10;58;55.5;59.2;;
78273;Laerm;67530;52.282;5.972;2023-03-11T00:02:30;58;55.2;59.4;;
78273;Laerm;67530;52.282;5.972;2023-03-11T00:02:51;57.9;55.4;59.1;;
78273;Laerm;67530;52.282;5.972;2023-03-11T00:03:11;57.7;53.3;59.3;;
78273;Laerm;67530;52.282;5.972;2023-03-11T00:03:50;57.9;54.9;59.3;;
78273;Laerm;67530;52.282;5.972;2023-03-11T00:04:10;57.8;55.1;59.2;;
78273;Laerm;67530;52.282;5.972;2023-03-11T00:04:30;57.8;55.1;59.1;;
78273;Laerm;67530;52.282;5.972;2023-03-11T00:04:50;57.8;55.2;59.2;;
78273;Laerm;67530;52.282;5.972;2023-03-11T00:05:11;57.8;55.1;59;;
78273;Laerm;67530;52.282;5.972;2023-03-11T00:05:31;58;55.4;59.2;;
78273;Laerm;67530;52.282;5.972;2023-03-11T00:05:51;58.1;55.5;59.2;;
78273;Laerm;67530;52.282;5.972;2023-03-11T00:06:10;57.9;55.2;59.3;;
78273;Laerm;67530;52.282;5.972;2023-03-11T00:06:30;58.1;55.2;59.5;;
78273;Laerm;67530;52.282;5.972;2023-03-11T00:06:50;58.1;54.9;59.4;;
78273;Laerm;67530;52.282;5.972;2023-03-11T00:07:10;58.2;55.6;59.8;;
78273;Laerm;67530;52.282;5.972;2023-03-11T00:07:30;58.2;55.9;59.6;;
78273;Laerm;67530;52.282;5.972;2023-03-11T00:07:51;58.2;55;59.4;;
78273;Laerm;67530;52.282;5.972;2023-03-11T00:08:13;58;54.5;59.8;;
78273;Laerm;67530;52.282;5.972;2023-03-11T00:08:31;58.2;55.1;59.7;;
78273;Laerm;67530;52.282;5.972;2023-03-11T00:08:51;57.8;54.3;59;;
78273;Laerm;67530;52.282;5.972;2023-03-11T00:09:11;58;55.2;59.4;;
78273;Laerm;67530;52.282;5.972;2023-03-11T00:09:31;57.9;55.5;59.2;;
78273;Laerm;67530;52.282;5.972;2023-03-11T00:09:51;58.1;56.4;59.4;;
78273;Laerm;67530;52.282;5.972;2023-03-11T00:10:12;58;54.8;59.4;;
78273;Laerm;67530;52.282;5.972;2023-03-11T00:10:32;58;55.4;59.4;;
78273;Laerm;67530;52.282;5.972;2023-03-11T00:10:52;58;56;59.4;;
78273;Laerm;67530;52.282;5.972;2023-03-11T00:11:11;58.1;56;59.2;;
78273;Laerm;67530;52.282;5.972;2023-03-11T00:11:31;58;55.8;59.5;;
78273;Laerm;67530;52.282;5.972;2023-03-11T00:11:51;57.9;54.5;59.4;;
78273;Laerm;67530;52.282;5.972;2023-03-11T00:12:11;57.9;55.2;59.3;;
78273;Laerm;67530;52.282;5.972;2023-03-11T00:12:31;58.1;55.6;59.6;;
78273;Laerm;67530;52.282;5.972;2023-03-11T00:12:51;58.1;54.4;59.3;;
78273;Laerm;67530;52.282;5.972;2023-03-11T00:13:13;58.3;56;59.7;;
78273;Laerm;67530;52.282;5.972;2023-03-11T00:13:32;58.4;56.2;59.8;;
78273;Laerm;67530;52.282;5.972;2023-03-11T00:13:52;58.5;56;59.9;;
78273;Laerm;67530;52.282;5.972;2023-03-11T00:14:12;58.9;56;60.2;;
78273;Laerm;67530;52.282;5.972;2023-03-11T00:14:32;59.1;56.9;60.3;;
78273;Laerm;67530;52.282;5.972;2023-03-11T00:14:52;59.1;57.2;60.3;;
78273;Laerm;67530;52.282;5.972;2023-03-11T00:15:12;59.3;57.5;60.4;;
78273;Laerm;67530;52.282;5.972;2023-03-11T00:15:32;59.5;56.5;60.7;;
78273;Laerm;67530;52.282;5.972;2023-03-11T00:15:53;59.5;56.5;60.6;;
78273;Laerm;67530;52.282;5.972;2023-03-11T00:16:12;59.5;56.1;60.7;;
78273;Laerm;67530;52.282;5.972;2023-03-11T00:16:32;59.5;57.7;60.5;;
78273;Laerm;67530;52.282;5.972;2023-03-11T00:16:52;59.5;56.6;60.8;;
78273;Laerm;67530;52.282;5.972;2023-03-11T00:17:12;59.6;57.5;60.7;;
78273;Laerm;67530;52.282;5.972;2023-03-11T00:17:32;59.5;56.3;60.6;;
78273;Laerm;67530;52.282;5.972;2023-03-11T00:17:52;59.7;57;60.9;;
78273;Laerm;67530;52.282;5.972;2023-03-11T00:18:12;59.7;56.9;61.3;;
78273;Laerm;67530;52.282;5.972;2023-03-11T00:18:32;59.7;56.7;60.7;;
78273;Laerm;67530;52.282;5.972;2023-03-11T00:18:52;59.7;57.3;61.2;;
78273;Laerm;67530;52.282;5.972;2023-03-11T00:19:13;59.8;57.5;60.9;;
78273;Laerm;67530;52.282;5.972;2023-03-11T00:19:33;59.9;56.5;61.2;;
78273;Laerm;67530;52.282;5.972;2023-03-11T00:19:53;59.8;57.7;61.1;;
78273;Laerm;67530;52.282;5.972;2023-03-11T00:20:14;59.9;56.7;61.3;;
78273;Laerm;67530;52.282;5.972;2023-03-11T00:20:34;59.8;57.3;61.2;;
78273;Laerm;67530;52.282;5.972;2023-03-11T00:20:53;59.6;57;60.9;;
78273;Laerm;67530;52.282;5.972;2023-03-11T00:21:13;59.5;57;60.6;;
78273;Laerm;67530;52.282;5.972;2023-03-11T00:21:33;59.6;57.2;60.7;;
78273;Laerm;67530;52.282;5.972;2023-03-11T00:21:53;59.4;57.1;60.5;;
78273;Laerm;67530;52.282;5.972;2023-03-11T00:22:13;59.2;56.6;60.7;;
78273;Laerm;67530;52.282;5.972;2023-03-11T00:22:33;59.4;57.1;60.5;;
78273;Laerm;67530;52.282;5.972;2023-03-11T00:22:54;59.1;56.6;60.4;;
78273;Laerm;67530;52.282;5.972;2023-03-11T00:23:14;58.9;56.2;60.4;;
78273;Laerm;67530;52.282;5.972;2023-03-11T00:23:33;58.7;56.2;60;;
78273;Laerm;67530;52.282;5.972;2023-03-11T00:23:53;58.8;56.2;60.2;;
78273;Laerm;67530;52.282;5.972;2023-03-11T00:24:13;58.5;56.2;60.1;;
78273;Laerm;67530;52.282;5.972;2023-03-11T00:24:34;58.6;56.5;60;;
78273;Laerm;67530;52.282;5.972;2023-03-11T00:24:54;58.6;55.9;60;;
78273;Laerm;67530;52.282;5.972;2023-03-11T00:25:14;58.7;56;60;;
78273;Laerm;67530;52.282;5.972;2023-03-11T00:25:34;58.7;56.1;60.2;;
78273;Laerm;67530;52.282;5.972;2023-03-11T00:25:54;58.9;57.1;60;;
78273;Laerm;67530;52.282;5.972;2023-03-11T00:26:14;59;56;60.4;;
78273;Laerm;67530;52.282;5.972;2023-03-11T00:26:34;59.2;55.8;60.5;;
78273;Laerm;67530;52.282;5.972;2023-03-11T00:26:54;59.4;57.2;60.6;;
78273;Laerm;67530;52.282;5.972;2023-03-11T00:27:14;59.5;57.4;60.8;;
78273;Laerm;67530;52.282;5.972;2023-03-11T00:27:34;59.5;57.1;60.5;;
78273;Laerm;67530;52.282;5.972;2023-03-11T00:27:54;59.6;56.2;60.9;;
78273;Laerm;67530;52.282;5.972;2023-03-11T00:28:14;59.7;57.3;61;;
78273;Laerm;67530;52.282;5.972;2023-03-11T00:28:34;59.9;57.2;61.6;;
78273;Laerm;67530;52.282;5.972;2023-03-11T00:28:54;59.8;57.9;61.1;;
78273;Laerm;67530;52.282;5.972;2023-03-11T00:29:14;59.9;57;61.1;;
78273;Laerm;67530;52.282;5.972;2023-03-11T00:29:34;59.9;57.3;61.1;;
78273;Laerm;67530;52.282;5.972;2023-03-11T00:29:54;60;57.4;61.5;;
78273;Laerm;67530;52.282;5.972;2023-03-11T00:30:15;60.1;57.1;61.3;;
78273;Laerm;67530;52.282;5.972;2023-03-11T00:30:35;60.2;57.6;61.5;;
78273;Laerm;67530;52.282;5.972;2023-03-11T00:30:55;60.4;56.5;62.5;;
78273;Laerm;67530;52.282;5.972;2023-03-11T00:31:15;60.3;57;61.5;;
78273;Laerm;67530;52.282;5.972;2023-03-11T00:31:35;60.3;56.7;61.5;;
78273;Laerm;67530;52.282;5.972;2023-03-11T00:31:55;60.3;57.8;61.4;;
78273;Laerm;67530;52.282;5.972;2023-03-11T00:32:15;60.2;57.7;61.5;;
78273;Laerm;67530;52.282;5.972;2023-03-11T00:32:35;60.4;57.4;61.6;;
78273;Laerm;67530;52.282;5.972;2023-03-11T00:32:56;60.3;57.3;61.4;;
78273;Laerm;67530;52.282;5.972;2023-03-11T00:33:15;60.1;57.9;61.6;;
78273;Laerm;67530;52.282;5.972;2023-03-11T00:33:35;60.3;57.3;61.7;;
78273;Laerm;67530;52.282;5.972;2023-03-11T00:33:55;60.3;57.3;61.5;;
78273;Laerm;67530;52.282;5.972;2023-03-11T00:34:15;60.3;57.7;61.7;;
78273;Laerm;67530;52.282;5.972;2023-03-11T00:34:35;60;56.7;61.3;;
78273;Laerm;67530;52.282;5.972;2023-03-11T00:34:55;60;57.5;61.4;;
78273;Laerm;67530;52.282;5.972;2023-03-11T00:35:16;59.9;57.1;61.3;;
78273;Laerm;67530;52.282;5.972;2023-03-11T00:35:35;59.9;57.4;61.2;;
78273;Laerm;67530;52.282;5.972;2023-03-11T00:35:56;59.9;57.4;61.1;;
78273;Laerm;67530;52.282;5.972;2023-03-11T00:36:19;60;56.8;61;;
78273;Laerm;67530;52.282;5.972;2023-03-11T00:36:36;59.9;57.4;61.4;;
78273;Laerm;67530;52.282;5.972;2023-03-11T00:36:56;60;57.5;61.1;;
78273;Laerm;67530;52.282;5.972;2023-03-11T00:37:16;59.9;57.5;61.1;;
78273;Laerm;67530;52.282;5.972;2023-03-11T00:37:36;60;57.6;61.2;;
78273;Laerm;67530;52.282;5.972;2023-03-11T00:37:57;60;57.1;61.3;;
78273;Laerm;67530;52.282;5.972;2023-03-11T00:38:16;60.2;57.6;61.7;;
78273;Laerm;67530;52.282;5.972;2023-03-11T00:38:36;60.2;57;61.5;;
78273;Laerm;67530;52.282;5.972;2023-03-11T00:38:56;60.2;58;61.6;;
78273;Laerm;67530;52.282;5.972;2023-03-11T00:39:16;60.4;57.9;61.5;;
78273;Laerm;67530;52.282;5.972;2023-03-11T00:39:36;60.3;57.4;61.5;;
78273;Laerm;67530;52.282;5.972;2023-03-11T00:39:56;60.2;57.3;61.5;;
78273;Laerm;67530;52.282;5.972;2023-03-11T00:40:17;60.3;56.8;61.8;;
78273;Laerm;67530;52.282;5.972;2023-03-11T00:40:37;60.2;58;61.5;;
78273;Laerm;67530;52.282;5.972;2023-03-11T00:40:56;60.2;58;61.5;;
78273;Laerm;67530;52.282;5.972;2023-03-11T00:41:17;60.2;57.7;61.6;;
78273;Laerm;67530;52.282;5.972;2023-03-11T00:41:37;60.2;57.4;61.6;;
78273;Laerm;67530;52.282;5.972;2023-03-11T00:41:57;60;56.8;61.4;;
78273;Laerm;67530;52.282;5.972;2023-03-11T00:42:17;59.9;56.9;61.2;;
78273;Laerm;67530;52.282;5.972;2023-03-11T00:42:37;60;57;61.3;;
78273;Laerm;67530;52.282;5.972;2023-03-11T00:42:57;59.9;57.3;61.2;;
78273;Laerm;67530;52.282;5.972;2023-03-11T00:43:17;60.2;56.3;61.5;;
78273;Laerm;67530;52.282;5.972;2023-03-11T00:43:37;60;57.4;61.2;;
78273;Laerm;67530;52.282;5.972;2023-03-11T00:43:57;60;57.8;61.3;;
78273;Laerm;67530;52.282;5.972;2023-03-11T00:44:17;59.9;56.8;61.3;;
78273;Laerm;67530;52.282;5.972;2023-03-11T00:44:37;59.9;56.9;61.3;;
78273;Laerm;67530;52.282;5.972;2023-03-11T00:44:57;59.8;57.7;61;;
78273;Laerm;67530;52.282;5.972;2023-03-11T00:45:17;59.9;58;61.1;;
78273;Laerm;67530;52.282;5.972;2023-03-11T00:45:37;59.8;56.5;61.1;;
78273;Laerm;67530;52.282;5.972;2023-03-11T00:45:57;59.7;57.4;61;;
78273;Laerm;67530;52.282;5.972;2023-03-11T00:46:17;59.7;57.1;61.2;;
78273;Laerm;67530;52.282;5.972;2023-03-11T00:46:37;59.7;57.5;61;;
78273;Laerm;67530;52.282;5.972;2023-03-11T00:46:58;59.7;57.7;60.9;;
78273;Laerm;67530;52.282;5.972;2023-03-11T00:47:18;59.6;57.5;60.9;;
78273;Laerm;67530;52.282;5.972;2023-03-11T00:47:38;59.7;57.6;61;;
78273;Laerm;67530;52.282;5.972;2023-03-11T00:47:58;59.6;56.5;60.9;;
78273;Laerm;67530;52.282;5.972;2023-03-11T00:48:18;59.7;56.9;60.9;;
78273;Laerm;67530;52.282;5.972;2023-03-11T00:48:38;59.7;57.7;60.7;;
78273;Laerm;67530;52.282;5.972;2023-03-11T00:48:58;59.6;57.4;60.9;;
78273;Laerm;67530;52.282;5.972;2023-03-11T00:49:18;59.6;57.8;60.8;;
78273;Laerm;67530;52.282;5.972;2023-03-11T00:49:38;59.5;57;60.8;;
78273;Laerm;67530;52.282;5.972;2023-03-11T00:49:58;59.5;57.6;60.6;;
78273;Laerm;67530;52.282;5.972;2023-03-11T00:50:19;59.5;56.4;60.8;;
78273;Laerm;67530;52.282;5.972;2023-03-11T00:50:38;59.4;56.3;60.6;;
78273;Laerm;67530;52.282;5.972;2023-03-11T00:50:58;59.3;56.5;60.7;;
78273;Laerm;67530;52.282;5.972;2023-03-11T00:51:18;59.5;57.4;60.6;;
78273;Laerm;67530;52.282;5.972;2023-03-11T00:51:38;59.6;57.6;60.8;;
78273;Laerm;67530;52.282;5.972;2023-03-11T00:51:59;59.4;56.7;60.7;;
78273;Laerm;67530;52.282;5.972;2023-03-11T00:52:19;59.3;56.3;60.6;;
78273;Laerm;67530;52.282;5.972;2023-03-11T00:52:39;59.6;57.5;60.6;;
78273;Laerm;67530;52.282;5.972;2023-03-11T00:52:59;59.5;57.2;60.6;;
78273;Laerm;67530;52.282;5.972;2023-03-11T00:53:19;59.4;56.9;60.6;;
78273;Laerm;67530;52.282;5.972;2023-03-11T00:53:39;59.2;56.3;60.4;;
78273;Laerm;67530;52.282;5.972;2023-03-11T00:53:59;58.9;55.6;60.2;;
78273;Laerm;67530;52.282;5.972;2023-03-11T00:54:19;58.8;56.2;60;;
78273;Laerm;67530;52.282;5.972;2023-03-11T00:54:39;58.9;55.9;60.2;;
78273;Laerm;67530;52.282;5.972;2023-03-11T00:54:59;58.8;56;60.3;;
78273;Laerm;67530;52.282;5.972;2023-03-11T00:55:20;58.7;56.2;60.1;;
78273;Laerm;67530;52.282;5.972;2023-03-11T00:55:39;58.5;56.2;59.9;;
78273;Laerm;67530;52.282;5.972;2023-03-11T00:56:04;58.3;54.7;60;;
78273;Laerm;67530;52.282;5.972;2023-03-11T00:56:19;58.2;55.6;59.7;;
78273;Laerm;67530;52.282;5.972;2023-03-11T00:56:39;58.1;55.4;59.6;;
78273;Laerm;67530;52.282;5.972;2023-03-11T00:57:00;58;54.9;59.4;;
78273;Laerm;67530;52.282;5.972;2023-03-11T00:57:19;57.8;54.8;59.3;;
78273;Laerm;67530;52.282;5.972;2023-03-11T00:57:40;57.9;55.1;59.1;;
78273;Laerm;67530;52.282;5.972;2023-03-11T00:58:00;57.9;54;59.3;;
78273;Laerm;67530;52.282;5.972;2023-03-11T00:58:20;58;54.7;59.1;;
78273;Laerm;67530;52.282;5.972;2023-03-11T00:58:40;58;55.2;59.2;;
78273;Laerm;67530;52.282;5.972;2023-03-11T00:59:00;58.1;55.2;59.1;;
78273;Laerm;67530;52.282;5.972;2023-03-11T00:59:20;58;55.4;59.2;;
78273;Laerm;67530;52.282;5.972;2023-03-11T00:59:40;57.9;54.1;59.2;;
78273;Laerm;67530;52.282;5.972;2023-03-11T01:00:01;57.9;55.1;59.1;;
78273;Laerm;67530;52.282;5.972;2023-03-11T01:00:21;57.8;54.8;59.2;;
78273;Laerm;67530;52.282;5.972;2023-03-11T01:00:40;57.8;54.1;58.9;;
78273;Laerm;67530;52.282;5.972;2023-03-11T01:01:00;57.7;54.2;58.8;;
78273;Laerm;67530;52.282;5.972;2023-03-11T01:01:20;57.7;54.5;58.9;;
78273;Laerm;67530;52.282;5.972;2023-03-11T01:01:40;57.6;55.5;58.8;;
78273;Laerm;67530;52.282;5.972;2023-03-11T01:02:00;57.7;55;58.8;;
78273;Laerm;67530;52.282;5.972;2023-03-11T01:02:20;57.7;54.9;58.8;;
78273;Laerm;67530;52.282;5.972;2023-03-11T01:02:40;57.5;54.5;59.1;;
78273;Laerm;67530;52.282;5.972;2023-03-11T01:03:01;57.7;54.7;59;;
78273;Laerm;67530;52.282;5.972;2023-03-11T01:03:21;57.6;55.1;58.7;;
78273;Laerm;67530;52.282;5.972;2023-03-11T01:03:41;57.6;54.9;59.1;;
78273;Laerm;67530;52.282;5.972;2023-03-11T01:04:01;57.3;54.8;58.6;;
78273;Laerm;67530;52.282;5.972;2023-03-11T01:04:21;57.4;54.8;58.9;;
78273;Laerm;67530;52.282;5.972;2023-03-11T01:04:41;57.3;53.3;58.6;;
78273;Laerm;67530;52.282;5.972;2023-03-11T01:05:01;57.1;54.6;58.3;;
78273;Laerm;67530;52.282;5.972;2023-03-11T01:05:23;57.2;54.6;58.5;;
78273;Laerm;67530;52.282;5.972;2023-03-11T01:05:41;57.1;54.1;58.6;;
78273;Laerm;67530;52.282;5.972;2023-03-11T01:06:01;56.9;53;58.2;;
78273;Laerm;67530;52.282;5.972;2023-03-11T01:06:21;56.2;53.3;57.9;;
78273;Laerm;67530;52.282;5.972;2023-03-11T01:06:41;56.5;53.5;57.9;;
78273;Laerm;67530;52.282;5.972;2023-03-11T01:07:01;56.3;53.2;57.8;;
78273;Laerm;67530;52.282;5.972;2023-03-11T01:07:21;56.3;53.1;57.7;;
78273;Laerm;67530;52.282;5.972;2023-03-11T01:07:41;56.4;52.5;57.6;;
78273;Laerm;67530;52.282;5.972;2023-03-11T01:08:02;56.3;53.8;57.6;;
78273;Laerm;67530;52.282;5.972;2023-03-11T01:08:21;56.4;53.6;57.4;;
78273;Laerm;67530;52.282;5.972;2023-03-11T01:08:42;56.5;53.2;57.7;;
78273;Laerm;67530;52.282;5.972;2023-03-11T01:09:02;56.4;53.8;57.6;;
78273;Laerm;67530;52.282;5.972;2023-03-11T01:09:22;56.4;52.9;57.5;;
78273;Laerm;67530;52.282;5.972;2023-03-11T01:09:42;56.3;53.6;57.4;;
78273;Laerm;67530;52.282;5.972;2023-03-11T01:10:02;56.3;52.8;57.5;;
78273;Laerm;67530;52.282;5.972;2023-03-11T01:10:22;56.1;53.2;57.7;;
78273;Laerm;67530;52.282;5.972;2023-03-11T01:11:02;56.1;52.9;57.6;;
78273;Laerm;67530;52.282;5.972;2023-03-11T01:11:22;56.2;53.3;57.3;;
78273;Laerm;67530;52.282;5.972;2023-03-11T01:11:45;56.3;52.7;57.5;;
78273;Laerm;67530;52.282;5.972;2023-03-11T01:12:02;56.2;52.3;57.4;;
78273;Laerm;67530;52.282;5.972;2023-03-11T01:12:22;56.2;53;57.3;;
78273;Laerm;67530;52.282;5.972;2023-03-11T01:12:42;56.1;53.1;57.4;;
78273;Laerm;67530;52.282;5.972;2023-03-11T01:13:03;56.1;52.6;57.3;;
78273;Laerm;67530;52.282;5.972;2023-03-11T01:13:23;56.1;53;57.3;;
78273;Laerm;67530;52.282;5.972;2023-03-11T01:13:42;56.1;53.2;57.5;;
78273;Laerm;67530;52.282;5.972;2023-03-11T01:14:02;56.1;53.4;57.3;;
78273;Laerm;67530;52.282;5.972;2023-03-11T01:14:22;56;53.2;57.2;;
78273;Laerm;67530;52.282;5.972;2023-03-11T01:14:43;55.9;52.7;57.1;;
78273;Laerm;67530;52.282;5.972;2023-03-11T01:15:04;55.7;52.7;56.9;;
78273;Laerm;67530;52.282;5.972;2023-03-11T01:15:24;55.6;52.1;56.8;;
78273;Laerm;67530;52.282;5.972;2023-03-11T01:15:43;55.2;52.8;56.6;;
78273;Laerm;67530;52.282;5.972;2023-03-11T01:16:03;54.8;51.7;56.6;;
78273;Laerm;67530;52.282;5.972;2023-03-11T01:16:23;54.7;51.6;55.9;;
78273;Laerm;67530;52.282;5.972;2023-03-11T01:16:43;54.6;52;56.1;;
78273;Laerm;67530;52.282;5.972;2023-03-11T01:17:03;54.6;51.2;56.4;;
78273;Laerm;67530;52.282;5.972;2023-03-11T01:17:23;54.7;51.2;56.2;;
78273;Laerm;67530;52.282;5.972;2023-03-11T01:17:43;54.7;52.3;56.3;;
78273;Laerm;67530;52.282;5.972;2023-03-11T01:18:03;54.7;51.7;56.1;;
78273;Laerm;67530;52.282;5.972;2023-03-11T01:18:24;54.7;52.4;56;;
78273;Laerm;67530;52.282;5.972;2023-03-11T01:18:43;54.7;51.4;56.1;;
78273;Laerm;67530;52.282;5.972;2023-03-11T01:19:03;54.7;50.6;55.8;;
78273;Laerm;67530;52.282;5.972;2023-03-11T01:19:23;54.7;52.4;56;;
78273;Laerm;67530;52.282;5.972;2023-03-11T01:19:43;54.8;51.4;56.1;;
78273;Laerm;67530;52.282;5.972;2023-03-11T01:20:04;55;51.5;56.4;;
78273;Laerm;67530;52.282;5.972;2023-03-11T01:20:24;54.8;51.2;56.3;;
78273;Laerm;67530;52.282;5.972;2023-03-11T01:20:44;55.1;51.8;56.3;;
78273;Laerm;67530;52.282;5.972;2023-03-11T01:21:04;55.1;53.1;56.5;;
78273;Laerm;67530;52.282;5.972;2023-03-11T01:21:24;55.2;52.9;56.5;;
78273;Laerm;67530;52.282;5.972;2023-03-11T01:21:44;55.2;51.9;56.6;;
78273;Laerm;67530;52.282;5.972;2023-03-11T01:22:04;55.1;52.3;56.4;;
78273;Laerm;67530;52.282;5.972;2023-03-11T01:22:24;55.1;51.1;56.4;;
78273;Laerm;67530;52.282;5.972;2023-03-11T01:22:44;54.8;51;56.2;;
78273;Laerm;67530;52.282;5.972;2023-03-11T01:23:04;54.8;51;56.3;;
78273;Laerm;67530;52.282;5.972;2023-03-11T01:23:24;54.8;52.2;56;;
78273;Laerm;67530;52.282;5.972;2023-03-11T01:23:44;54.9;51.3;56.3;;
78273;Laerm;67530;52.282;5.972;2023-03-11T01:24:04;54.7;50.9;56.4;;
78273;Laerm;67530;52.282;5.972;2023-03-11T01:24:24;54.7;51.8;56.2;;
78273;Laerm;67530;52.282;5.972;2023-03-11T01:24:44;54.7;51.4;56.1;;
78273;Laerm;67530;52.282;5.972;2023-03-11T01:25:05;54.7;51.1;56.4;;
78273;Laerm;67530;52.282;5.972;2023-03-11T01:25:25;54.9;50.9;56.5;;
78273;Laerm;67530;52.282;5.972;2023-03-11T01:25:45;54.8;51.6;56.1;;
78273;Laerm;67530;52.282;5.972;2023-03-11T01:26:05;54.7;51.9;56.3;;
78273;Laerm;67530;52.282;5.972;2023-03-11T01:26:25;54.7;51.7;56.2;;
78273;Laerm;67530;52.282;5.972;2023-03-11T01:26:45;54.7;51.3;55.8;;
78273;Laerm;67530;52.282;5.972;2023-03-11T01:27:05;54.6;51.7;56.1;;
78273;Laerm;67530;52.282;5.972;2023-03-11T01:27:25;54.7;51.3;56.1;;
78273;Laerm;67530;52.282;5.972;2023-03-11T01:27:45;54.8;51.4;55.9;;
78273;Laerm;67530;52.282;5.972;2023-03-11T01:28:05;54.8;51.2;55.9;;
78273;Laerm;67530;52.282;5.972;2023-03-11T01:28:25;54.5;51.6;56;;
78273;Laerm;67530;52.282;5.972;2023-03-11T01:28:45;54.5;51.5;55.8;;
78273;Laerm;67530;52.282;5.972;2023-03-11T01:29:05;54.2;50.9;55.6;;
78273;Laerm;67530;52.282;5.972;2023-03-11T01:29:25;54.6;51;55.7;;
78273;Laerm;67530;52.282;5.972;2023-03-11T01:29:45;54.6;52;55.8;;
78273;Laerm;67530;52.282;5.972;2023-03-11T01:30:06;54.6;52.3;55.6;;
78273;Laerm;67530;52.282;5.972;2023-03-11T01:30:26;54.6;51.5;55.7;;
78273;Laerm;67530;52.282;5.972;2023-03-11T01:30:45;54.5;49.2;55.9;;
78273;Laerm;67530;52.282;5.972;2023-03-11T01:31:07;54.4;51.8;55.6;;
78273;Laerm;67530;52.282;5.972;2023-03-11T01:31:26;54.4;51.6;55.4;;
78273;Laerm;67530;52.282;5.972;2023-03-11T01:31:46;54.4;51.4;55.5;;
78273;Laerm;67530;52.282;5.972;2023-03-11T01:32:06;54.2;51.4;55.4;;
78273;Laerm;67530;52.282;5.972;2023-03-11T01:32:26;54.2;51;55.6;;
78273;Laerm;67530;52.282;5.972;2023-03-11T01:32:46;54.2;50.3;55.6;;
78273;Laerm;67530;52.282;5.972;2023-03-11T01:33:07;54.2;51.3;55.3;;
78273;Laerm;67530;52.282;5.972;2023-03-11T01:33:26;54.2;51.1;55.3;;
78273;Laerm;67530;52.282;5.972;2023-03-11T01:33:46;54.3;50.8;55.4;;
78273;Laerm;67530;52.282;5.972;2023-03-11T01:34:06;54.2;51;55.3;;
78273;Laerm;67530;52.282;5.972;2023-03-11T01:34:26;54.3;52.1;55.3;;
78273;Laerm;67530;52.282;5.972;2023-03-11T01:34:46;54.1;50.6;55.1;;
78273;Laerm;67530;52.282;5.972;2023-03-11T01:35:06;54;50.7;55;;
78273;Laerm;67530;52.282;5.972;2023-03-11T01:35:28;53.9;51.3;55.3;;
78273;Laerm;67530;52.282;5.972;2023-03-11T01:35:46;54;50;55.1;;
78273;Laerm;67530;52.282;5.972;2023-03-11T01:36:07;54;50.6;55.2;;
78273;Laerm;67530;52.282;5.972;2023-03-11T01:36:26;54;50.8;55;;
78273;Laerm;67530;52.282;5.972;2023-03-11T01:36:47;53.9;50.2;55;;
78273;Laerm;67530;52.282;5.972;2023-03-11T01:37:07;53.8;51.2;55.1;;
78273;Laerm;67530;52.282;5.972;2023-03-11T01:37:27;53.7;50.7;55.1;;
78273;Laerm;67530;52.282;5.972;2023-03-11T01:37:47;53.8;51.1;55;;
78273;Laerm;67530;52.282;5.972;2023-03-11T01:38:07;53.8;50.7;54.9;;
78273;Laerm;67530;52.282;5.972;2023-03-11T01:38:27;53.8;50.4;54.9;;
78273;Laerm;67530;52.282;5.972;2023-03-11T01:38:47;53.8;51.3;54.9;;
78273;Laerm;67530;52.282;5.972;2023-03-11T01:39:07;53.8;50.9;54.8;;
78273;Laerm;67530;52.282;5.972;2023-03-11T01:39:27;53.6;51.4;54.9;;
78273;Laerm;67530;52.282;5.972;2023-03-11T01:39:47;53.7;51.2;54.7;;
78273;Laerm;67530;52.282;5.972;2023-03-11T01:40:11;53.5;50;54.6;;
78273;Laerm;67530;52.282;5.972;2023-03-11T01:40:28;53.5;48.9;54.6;;
78273;Laerm;67530;52.282;5.972;2023-03-11T01:40:48;53.4;50;54.8;;
78273;Laerm;67530;52.282;5.972;2023-03-11T01:41:07;53.3;49.7;54.4;;
78273;Laerm;67530;52.282;5.972;2023-03-11T01:41:27;53.2;49.5;54.4;;
78273;Laerm;67530;52.282;5.972;2023-03-11T01:41:47;53.1;50.3;54.4;;
78273;Laerm;67530;52.282;5.972;2023-03-11T01:42:07;53;49.4;54.4;;
78273;Laerm;67530;52.282;5.972;2023-03-11T01:42:28;52.9;50.2;54.2;;
78273;Laerm;67530;52.282;5.972;2023-03-11T01:42:48;52.9;50.2;54.2;;
78273;Laerm;67530;52.282;5.972;2023-03-11T01:43:37;52.6;49.2;54.1;;
78273;Laerm;67530;52.282;5.972;2023-03-11T01:43:38;52.8;50;54.2;;
78273;Laerm;67530;52.282;5.972;2023-03-11T01:43:49;52.6;49.4;54.1;;
78273;Laerm;67530;52.282;5.972;2023-03-11T01:44:09;52.8;50.5;54.1;;
78273;Laerm;67530;52.282;5.972;2023-03-11T01:44:28;52.7;49.3;54.1;;
78273;Laerm;67530;52.282;5.972;2023-03-11T01:44:48;52.5;48.7;54;;
78273;Laerm;67530;52.282;5.972;2023-03-11T01:45:17;52.6;48.9;53.9;;
78273;Laerm;67530;52.282;5.972;2023-03-11T01:45:32;52.6;49.2;54.3;;
78273;Laerm;67530;52.282;5.972;2023-03-11T01:46:10;52.7;49.4;53.9;;
78273;Laerm;67530;52.282;5.972;2023-03-11T01:46:21;52.7;49.9;54;;
78273;Laerm;67530;52.282;5.972;2023-03-11T01:46:30;52.5;48.9;54.1;;
78273;Laerm;67530;52.282;5.972;2023-03-11T01:47:31;52.8;49.4;54.1;;
78273;Laerm;67530;52.282;5.972;2023-03-11T01:47:37;52.7;49.1;53.8;;
78273;Laerm;67530;52.282;5.972;2023-03-11T01:47:40;52.7;50.4;54.2;;
78273;Laerm;67530;52.282;5.972;2023-03-11T01:47:49;52.7;49.2;53.9;;
78273;Laerm;67530;52.282;5.972;2023-03-11T01:48:09;52.7;49;54;;
78273;Laerm;67530;52.282;5.972;2023-03-11T01:48:29;52.6;50.1;53.8;;
78273;Laerm;67530;52.282;5.972;2023-03-11T01:48:49;52.7;49.8;54.1;;
78273;Laerm;67530;52.282;5.972;2023-03-11T01:49:11;52.7;49.3;53.8;;
78273;Laerm;67530;52.282;5.972;2023-03-11T01:49:29;52.6;49.7;53.7;;
78273;Laerm;67530;52.282;5.972;2023-03-11T01:49:49;52.4;48.5;53.8;;
78273;Laerm;67530;52.282;5.972;2023-03-11T01:50:10;52.6;49.2;54.1;;
78273;Laerm;67530;52.282;5.972;2023-03-11T01:50:30;52.6;50.5;53.7;;
78273;Laerm;67530;52.282;5.972;2023-03-11T01:50:49;52.8;50.4;54;;
78273;Laerm;67530;52.282;5.972;2023-03-11T01:51:09;52.8;49.5;54;;
78273;Laerm;67530;52.282;5.972;2023-03-11T01:51:30;52.7;49.9;54;;
78273;Laerm;67530;52.282;5.972;2023-03-11T01:51:50;52.8;48.6;54.2;;
78273;Laerm;67530;52.282;5.972;2023-03-11T01:52:09;52.6;49.7;54;;
78273;Laerm;67530;52.282;5.972;2023-03-11T01:52:29;52.8;49.6;54.1;;
78273;Laerm;67530;52.282;5.972;2023-03-11T01:52:49;52.8;48.6;54.1;;
78273;Laerm;67530;52.282;5.972;2023-03-11T01:53:10;52.7;49.8;53.9;;
78273;Laerm;67530;52.282;5.972;2023-03-11T01:53:50;52.6;49.8;54;;
78273;Laerm;67530;52.282;5.972;2023-03-11T01:54:11;52.5;48.8;53.5;;
78273;Laerm;67530;52.282;5.972;2023-03-11T01:54:30;52.5;49.9;53.5;;
78273;Laerm;67530;52.282;5.972;2023-03-11T01:54:50;52.6;49.8;53.7;;
78273;Laerm;67530;52.282;5.972;2023-03-11T01:55:10;52.5;48.9;53.6;;
78273;Laerm;67530;52.282;5.972;2023-03-11T01:55:30;52.5;50.6;53.4;;
78273;Laerm;67530;52.282;5.972;2023-03-11T01:55:50;52.4;50.1;53.7;;
78273;Laerm;67530;52.282;5.972;2023-03-11T01:56:10;52.2;49.9;53.5;;
78273;Laerm;67530;52.282;5.972;2023-03-11T01:56:30;52.3;50.3;53.3;;
78273;Laerm;67530;52.282;5.972;2023-03-11T01:56:50;52.6;49.9;53.7;;
78273;Laerm;67530;52.282;5.972;2023-03-11T01:57:11;52.6;50;53.5;;
78273;Laerm;67530;52.282;5.972;2023-03-11T01:57:30;52.5;50.1;53.6;;
78273;Laerm;67530;52.282;5.972;2023-03-11T01:57:50;52.5;49.5;53.7;;
78273;Laerm;67530;52.282;5.972;2023-03-11T01:58:11;52.7;50.9;53.8;;
78273;Laerm;67530;52.282;5.972;2023-03-11T01:58:33;52.7;50.4;53.8;;
78273;Laerm;67530;52.282;5.972;2023-03-11T01:58:51;52.8;50.3;53.8;;
78273;Laerm;67530;52.282;5.972;2023-03-11T01:59:12;52.7;50.5;53.7;;